Yuba, Wisconsin
Current Conditions -  °F | °C
As of 7:15 AM on Sunday 23 Nov 2014 (Local Time) from KC35 Reporting Station
Overcast Overcast  
Wind Chill: 45°   Ceiling: 500
Heat Index: 49°   Visibility: 10mi
Dew Point: 48°   Wind: 10mph
Humidity: 97%   Direction: 170°S
Pressure: 29.59"   Gusts: 17mph
Location:  43.6121°N, 90.3998°W
Report Text: KC35 231315Z AUTO 17009G15KT 10SM OVC005 10/09 A2959 RMK AO2 T00950090
Loading
Personal Weather Stations






























Interactive Weather Map New forecast layout! Learn more

10-Day Weather Forecast

Advertisements
Track Severe Weather on mobile